Terminal Aerodrome Forecast
Issued by NWS

Home | Current Version | Previous Version | Text Only | Print | Product List | Glossary On
Versions: 1 2 3 4 5 6 7 8 9 10 11 12 13 14 15 16
000
FTUS43 KILX 241100
TAFCMI
TAF
KCMI 241120Z 2412/2512 VRB03KT P6SM SCT040
      TEMPO 2413/2414 BKN010
     FM241400 23006KT P6SM SCT012 BKN250
     FM250400 20007KT P6SM BKN025=

USA.gov is the U.S. government's official web portal to all federal, state and local government web resources and services.